Time;durP1;ratioP1;P1;durP2;ratioP2;P2;SDS_P1;SDS_P2;PMS_P1;PMS_P2;Temp;Humidity;BMP_temperature;BMP_pressure;BME280_temperature;BME280_humidity;BME280_pressure;Samples;Min_cycle;Max_cycle;Signal;HPM_P1;HPM_P2
2021/12/13 00:02:07;;;;;;;56.80;31.70;;;22.90;37.30;;;;;;6157560;28;83721;-68
2021/12/13 00:05:07;;;;;;;59.33;33.75;;;22.90;36.10;;;;;;6168547;28;82854;-67
2021/12/13 00:08:08;;;;;;;55.17;32.33;;;22.90;36.70;;;;;;6172364;28;83270;-67
2021/12/13 00:11:09;;;;;;;58.22;32.42;;;22.90;36.80;;;;;;6162452;27;82867;-67
2021/12/13 00:14:09;;;;;;;57.30;32.75;;;22.90;35.90;;;;;;6165327;28;83139;-68
2021/12/13 00:17:10;;;;;;;53.80;31.85;;;22.90;35.70;;;;;;6156953;28;83186;-68
2021/12/13 00:20:12;;;;;;;54.47;32.42;;;22.90;36.20;;;;;;6159540;28;82966;-67
2021/12/13 00:23:13;;;;;;;58.17;31.88;;;22.90;35.70;;;;;;6156685;28;83788;-68
2021/12/13 00:26:13;;;;;;;57.83;31.42;;;22.90;35.90;;;;;;6174211;28;82821;-67
2021/12/13 00:29:14;;;;;;;52.42;30.40;;;22.90;35.90;;;;;;6175702;28;83504;-68
2021/12/13 00:32:14;;;;;;;53.10;31.67;;;22.90;35.70;;;;;;6158384;28;82909;-67
2021/12/13 00:35:15;;;;;;;52.83;29.77;;;22.90;35.70;;;;;;6173963;28;84791;-67
2021/12/13 00:38:16;;;;;;;57.63;30.73;;;22.90;35.90;;;;;;6156747;28;83342;-68
2021/12/13 00:41:16;;;;;;;50.70;29.50;;;22.90;36.00;;;;;;6173185;28;83487;-67
2021/12/13 00:44:17;;;;;;;52.80;29.80;;;22.90;36.10;;;;;;6157698;28;84136;-68
2021/12/13 00:47:17;;;;;;;51.97;29.70;;;22.80;36.00;;;;;;6174372;28;83226;-68
2021/12/13 00:50:18;;;;;;;54.88;30.95;;;22.80;36.10;;;;;;6157594;28;82990;-68
2021/12/13 00:53:18;;;;;;;53.33;30.90;;;22.80;35.70;;;;;;6157355;28;83668;-68
2021/12/13 00:56:19;;;;;;;58.53;33.38;;;22.80;35.70;;;;;;6157342;28;84254;-67
2021/12/13 00:59:19;;;;;;;56.38;32.65;;;22.80;35.60;;;;;;6157116;28;82950;-67
2021/12/13 01:02:21;;;;;;;57.33;31.35;;;22.80;35.60;;;;;;6175831;28;83219;-68
2021/12/13 01:05:21;;;;;;;57.58;30.83;;;22.80;35.60;;;;;;6156659;28;83182;-68
2021/12/13 01:08:22;;;;;;;59.15;31.52;;;22.80;35.50;;;;;;6172663;28;83396;-66
2021/12/13 01:11:22;;;;;;;58.95;32.22;;;22.80;35.60;;;;;;6156860;28;88987;-66
2021/12/13 01:14:23;;;;;;;56.67;30.48;;;22.80;35.50;;;;;;6164218;28;84153;-66
2021/12/13 01:17:36;;;;;;;51.67;29.70;;;22.70;35.50;;;;;;6176349;28;82714;-66
2021/12/13 01:20:56;;;;;;;51.55;30.25;;;22.80;35.40;;;;;;6157683;28;82750;-65
2021/12/13 01:24:04;;;;;;;52.70;29.10;;;22.70;35.30;;;;;;6141375;28;83018;-68
2021/12/13 01:27:05;;;;;;;53.00;29.77;;;22.80;35.40;;;;;;6174130;28;83154;-67
2021/12/13 01:30:05;;;;;;;49.33;29.10;;;22.70;35.30;;;;;;6166975;28;83795;-67
2021/12/13 01:33:06;;;;;;;51.63;28.77;;;22.70;35.50;;;;;;6173150;28;83330;-67
2021/12/13 01:36:06;;;;;;;53.28;29.15;;;22.70;35.40;;;;;;6157352;28;85570;-67
2021/12/13 01:39:07;;;;;;;53.60;30.23;;;22.70;35.60;;;;;;6159659;28;83022;-67
2021/12/13 01:42:07;;;;;;;50.78;28.52;;;22.70;35.20;;;;;;6169765;28;83391;-67
2021/12/13 01:45:08;;;;;;;51.60;28.60;;;22.70;35.80;;;;;;6160466;28;84124;-67
2021/12/13 01:48:08;;;;;;;56.85;30.35;;;22.70;35.10;;;;;;6172709;28;83039;-66
2021/12/13 01:51:11;;;;;;;52.95;29.77;;;22.70;35.10;;;;;;6163052;28;84070;-67
2021/12/13 01:54:13;;;;;;;58.72;31.98;;;22.70;35.20;;;;;;6168252;28;83230;-68
2021/12/13 02:00:18;;;;;;;51.63;29.13;;;22.70;34.90;;;;;;6169463;28;83245;-67
2021/12/13 02:03:19;;;;;;;49.25;28.63;;;22.70;35.00;;;;;;6161725;28;83023;-67
2021/12/13 02:06:19;;;;;;;53.25;30.42;;;22.70;34.80;;;;;;6167207;28;83533;-68
2021/12/13 02:09:20;;;;;;;53.85;30.30;;;22.70;34.80;;;;;;6166118;28;83009;-68
2021/12/13 02:12:20;;;;;;;52.67;28.83;;;22.70;35.00;;;;;;6161940;27;83039;-67
2021/12/13 02:18:40;;;;;;;46.78;27.55;;;22.70;35.00;;;;;;6154674;28;83900;-68
2021/12/13 02:21:41;;;;;;;54.45;29.58;;;22.70;34.70;;;;;;6155861;28;84142;-68
2021/12/13 02:24:41;;;;;;;49.13;27.80;;;22.70;35.10;;;;;;6167692;27;83560;-68
2021/12/13 02:27:42;;;;;;;47.80;28.17;;;22.70;34.90;;;;;;6160038;28;84403;-68
2021/12/13 02:30:42;;;;;;;54.78;30.73;;;22.70;34.90;;;;;;6163008;27;83349;-69
2021/12/13 02:33:43;;;;;;;51.88;30.42;;;22.70;34.90;;;;;;6167175;28;83116;-69
2021/12/13 02:36:43;;;;;;;49.65;28.50;;;22.70;35.00;;;;;;6169322;28;85339;-69
2021/12/13 02:39:44;;;;;;;54.67;29.60;;;22.60;35.00;;;;;;6151791;28;83308;-69
2021/12/13 02:42:44;;;;;;;45.08;27.33;;;22.60;34.70;;;;;;6153358;28;82765;-69
2021/12/13 02:45:45;;;;;;;50.05;28.77;;;22.60;34.70;;;;;;6157403;28;83652;-69
2021/12/13 02:48:45;;;;;;;50.38;29.50;;;22.60;34.70;;;;;;6158451;28;83794;-69
2021/12/13 02:51:46;;;;;;;50.53;28.50;;;22.60;34.70;;;;;;6162689;27;84219;-70
2021/12/13 02:54:46;;;;;;;57.38;29.60;;;22.60;34.70;;;;;;6157483;28;83447;-70
2021/12/13 02:57:47;;;;;;;53.38;29.30;;;22.60;34.50;;;;;;6155254;28;82792;-69
2021/12/13 03:00:47;;;;;;;52.85;28.77;;;22.60;34.60;;;;;;6157549;28;84544;-69
2021/12/13 03:03:48;;;;;;;55.13;29.55;;;22.60;34.80;;;;;;6158847;28;83160;-69
2021/12/13 03:06:48;;;;;;;51.70;29.00;;;22.60;34.60;;;;;;6159979;28;83115;-68
2021/12/13 03:09:49;;;;;;;49.55;27.95;;;22.60;34.50;;;;;;6155044;28;83847;-68
2021/12/13 03:12:50;;;;;;;50.97;27.90;;;22.60;35.00;;;;;;6155775;28;82959;-68
2021/12/13 03:15:50;;;;;;;52.97;29.02;;;22.60;34.30;;;;;;6155256;28;84512;-68
2021/12/13 03:18:51;;;;;;;50.70;27.10;;;22.60;34.00;;;;;;6155475;28;83064;-67
2021/12/13 03:21:51;;;;;;;53.53;28.40;;;22.70;33.80;;;;;;6166568;27;84082;-67
2021/12/13 03:24:52;;;;;;;50.47;28.88;;;22.70;33.60;;;;;;6172248;27;83113;-67
2021/12/13 03:27:52;;;;;;;48.33;28.13;;;22.80;33.40;;;;;;6131516;28;83816;-67
2021/12/13 03:30:53;;;;;;;55.40;29.27;;;22.90;33.50;;;;;;6172867;28;82932;-68
2021/12/13 03:33:53;;;;;;;51.45;28.15;;;23.00;33.30;;;;;;6171271;27;84245;-67
2021/12/13 03:36:54;;;;;;;54.20;29.52;;;23.10;33.30;;;;;;6171287;28;83506;-68
2021/12/13 03:39:54;;;;;;;50.90;28.33;;;23.10;33.30;;;;;;6171104;28;85083;-68
2021/12/13 03:42:55;;;;;;;46.63;27.35;;;23.20;33.20;;;;;;6153820;28;83513;-67
2021/12/13 03:45:55;;;;;;;50.45;28.30;;;23.20;33.10;;;;;;6172975;28;83043;-68
2021/12/13 03:48:56;;;;;;;47.33;26.70;;;23.30;33.00;;;;;;6153779;28;83211;-68
2021/12/13 03:51:56;;;;;;;53.08;29.60;;;23.30;33.00;;;;;;6161300;28;83234;-67
2021/12/13 03:54:57;;;;;;;49.30;26.90;;;23.30;32.90;;;;;;6171490;28;83200;-68
2021/12/13 03:57:58;;;;;;;49.13;27.10;;;23.40;33.00;;;;;;6171448;28;83949;-68
2021/12/13 04:00:59;;;;;;;48.53;26.63;;;23.40;32.80;;;;;;6158111;28;83500;-69
2021/12/13 04:03:59;;;;;;;48.13;27.00;;;23.40;32.70;;;;;;6169318;28;82980;-69
2021/12/13 04:07:00;;;;;;;48.38;26.70;;;23.40;32.70;;;;;;6175688;27;83064;-69
2021/12/13 04:10:00;;;;;;;46.10;26.52;;;23.40;32.80;;;;;;6160300;28;83293;-68
2021/12/13 04:13:01;;;;;;;50.58;28.67;;;23.40;32.60;;;;;;6159003;28;83711;-68
2021/12/13 04:22:02;;;;;;;47.92;27.08;;;23.40;32.70;;;;;;6155757;28;84602;-70
2021/12/13 04:25:03;;;;;;;42.63;25.15;;;23.40;32.60;;;;;;6162422;28;83087;-69
2021/12/13 04:28:04;;;;;;;46.78;26.90;;;23.40;32.50;;;;;;6161097;28;82936;-69
2021/12/13 04:31:04;;;;;;;50.75;28.40;;;23.50;32.50;;;;;;6159799;28;83087;-68
2021/12/13 04:34:05;;;;;;;51.92;29.83;;;23.50;32.50;;;;;;6160350;28;83369;-68
2021/12/13 04:37:05;;;;;;;49.17;29.80;;;23.50;32.40;;;;;;6160568;28;82845;-68
2021/12/13 04:40:06;;;;;;;52.25;31.30;;;23.50;32.40;;;;;;6158507;28;84040;-69
2021/12/13 04:43:06;;;;;;;50.70;29.70;;;23.50;32.30;;;;;;6156330;28;85668;-68
2021/12/13 04:46:07;;;;;;;54.17;30.63;;;23.50;32.20;;;;;;6157508;28;83468;-69
2021/12/13 04:49:07;;;;;;;48.33;29.20;;;23.50;32.30;;;;;;6156401;28;83414;-69
2021/12/13 04:52:08;;;;;;;51.60;29.92;;;23.50;32.40;;;;;;6159176;28;82851;-68
2021/12/13 04:55:08;;;;;;;50.40;29.45;;;23.50;32.60;;;;;;6160048;28;84473;-68
2021/12/13 04:58:09;;;;;;;45.75;27.17;;;23.50;33.40;;;;;;6158790;28;84383;-69
2021/12/13 05:01:09;;;;;;;53.20;29.58;;;23.50;32.70;;;;;;6158996;28;83285;-68
2021/12/13 05:04:10;;;;;;;49.83;28.73;;;23.60;32.40;;;;;;6156163;28;84393;-71
2021/12/13 05:07:10;;;;;;;49.55;29.65;;;23.50;32.40;;;;;;6162710;28;83235;-70
2021/12/13 05:10:11;;;;;;;53.97;29.88;;;23.60;32.40;;;;;;6164174;27;84183;-68
2021/12/13 05:13:12;;;;;;;48.75;29.42;;;23.60;32.50;;;;;;6164468;27;83066;-66
2021/12/13 05:16:12;;;;;;;56.00;29.23;;;23.60;32.50;;;;;;6158836;28;84352;-66
2021/12/13 05:19:13;;;;;;;52.38;31.77;;;23.60;32.30;;;;;;6147896;28;83157;-66
2021/12/13 05:22:13;;;;;;;51.63;29.42;;;23.60;32.20;;;;;;6156364;28;83144;-66
2021/12/13 05:25:14;;;;;;;51.35;31.40;;;23.60;32.00;;;;;;6156967;28;85733;-66
2021/12/13 05:28:14;;;;;;;49.80;29.48;;;23.70;32.10;;;;;;6155794;28;83233;-67
2021/12/13 05:31:15;;;;;;;49.42;28.85;;;23.70;32.70;;;;;;6156023;28;83350;-68
2021/12/13 05:34:15;;;;;;;56.83;33.33;;;23.70;31.80;;;;;;6156501;28;83313;-67
2021/12/13 05:37:16;;;;;;;53.63;31.40;;;23.70;32.10;;;;;;6156385;28;84306;-67
2021/12/13 05:40:17;;;;;;;59.95;31.80;;;23.70;32.30;;;;;;6156198;28;83396;-70
2021/12/13 05:43:18;;;;;;;56.63;32.33;;;23.70;32.50;;;;;;6156276;28;89850;-68
2021/12/13 05:46:18;;;;;;;49.42;29.08;;;23.70;32.60;;;;;;6156150;28;84443;-69
2021/12/13 05:49:19;;;;;;;51.88;29.10;;;23.70;33.20;;;;;;6186732;28;86412;-70
2021/12/13 05:52:19;;;;;;;50.88;28.67;;;23.70;33.80;;;;;;6156008;28;82717;-69
2021/12/13 05:55:20;;;;;;;50.92;27.58;;;23.70;34.90;;;;;;6152693;28;83187;-69
2021/12/13 05:58:20;;;;;;;52.20;29.02;;;23.70;35.20;;;;;;6151108;28;84217;-68
2021/12/13 06:01:22;;;;;;;53.58;29.33;;;23.70;36.20;;;;;;6155662;28;83244;-66
2021/12/13 06:04:22;;;;;;;53.67;30.88;;;23.70;35.50;;;;;;6155546;28;90615;-67
2021/12/13 06:07:23;;;;;;;53.53;30.88;;;23.60;35.30;;;;;;6155900;28;83943;-66
2021/12/13 06:10:23;;;;;;;49.28;28.35;;;23.60;34.90;;;;;;6155682;28;83903;-69
2021/12/13 06:13:24;;;;;;;47.00;26.83;;;23.60;35.60;;;;;;6155988;28;83345;-65
2021/12/13 06:16:25;;;;;;;40.97;23.98;;;23.60;36.90;;;;;;6153597;28;83259;-64
2021/12/13 06:19:26;;;;;;;40.25;23.88;;;23.50;37.90;;;;;;6154962;28;82899;-69
2021/12/13 06:22:26;;;;;;;36.95;20.95;;;23.40;39.30;;;;;;6152992;28;83463;-68
2021/12/13 06:25:27;;;;;;;31.75;19.10;;;23.40;39.90;;;;;;6148156;28;83654;-66
2021/12/13 06:28:27;;;;;;;33.22;19.25;;;23.40;40.70;;;;;;6153732;28;84249;-72
2021/12/13 06:31:28;;;;;;;35.30;19.15;;;23.30;41.10;;;;;;6157331;28;83256;-68
2021/12/13 06:34:28;;;;;;;30.20;18.15;;;23.30;41.10;;;;;;6153872;28;83827;-76
2021/12/13 06:37:29;;;;;;;35.40;19.60;;;23.20;41.50;;;;;;6158957;28;83049;-66
2021/12/13 06:40:29;;;;;;;32.70;19.00;;;23.20;41.70;;;;;;6155497;28;83038;-67
2021/12/13 06:43:30;;;;;;;32.58;18.55;;;23.10;41.70;;;;;;6154811;28;82803;-66
2021/12/13 06:46:30;;;;;;;31.88;18.90;;;23.10;41.90;;;;;;6156999;28;84466;-67
2021/12/13 06:49:31;;;;;;;34.50;19.38;;;23.00;42.30;;;;;;6153616;28;82860;-68
2021/12/13 06:52:37;;;;;;;33.00;18.85;;;23.00;42.60;;;;;;6153542;28;83094;-67
2021/12/13 06:55:37;;;;;;;;;;;22.90;42.70;;;;;;6154957;28;83648;-66
2021/12/13 06:58:38;;;;;;;33.55;18.95;;;22.90;42.80;;;;;;6164709;28;83371;-67
2021/12/13 07:01:38;;;;;;;33.42;19.88;;;22.90;42.80;;;;;;6154923;28;83108;-67
2021/12/13 07:04:39;;;;;;;30.10;18.35;;;22.90;42.90;;;;;;6154434;28;83401;-67
2021/12/13 07:07:40;;;;;;;35.80;20.70;;;22.90;43.00;;;;;;6160951;28;83292;-68
2021/12/13 07:10:40;;;;;;;31.48;18.38;;;22.80;42.90;;;;;;6154344;28;83379;-66
2021/12/13 07:13:42;;;;;;;36.45;20.67;;;22.80;43.00;;;;;;6155941;28;83735;-66
2021/12/13 07:16:43;;;;;;;40.47;23.40;;;22.80;42.40;;;;;;6154141;28;83868;-64
2021/12/13 07:19:43;;;;;;;39.88;23.38;;;22.80;42.40;;;;;;6154350;28;82742;-68
2021/12/13 07:22:44;;;;;;;43.97;25.40;;;22.80;41.60;;;;;;6154216;28;83256;-67
2021/12/13 07:25:44;;;;;;;47.20;26.60;;;22.80;40.90;;;;;;6153618;28;83003;-68
2021/12/13 07:28:45;;;;;;;46.05;26.50;;;22.70;40.90;;;;;;6152645;28;84437;-69
2021/12/13 07:31:45;;;;;;;48.35;26.65;;;22.70;40.50;;;;;;6151729;28;83119;-70
2021/12/13 07:34:46;;;;;;;45.08;25.80;;;22.70;40.00;;;;;;6155862;28;84084;-70
2021/12/13 07:37:46;;;;;;;52.97;29.58;;;22.70;40.30;;;;;;6151798;28;83907;-68
2021/12/13 07:40:47;;;;;;;46.38;27.05;;;22.70;40.30;;;;;;6187824;28;83385;-65
2021/12/13 07:43:47;;;;;;;48.25;26.42;;;22.70;39.40;;;;;;6158935;28;83480;-67
2021/12/13 07:46:48;;;;;;;46.08;25.15;;;22.70;40.10;;;;;;6158674;28;83841;-68
2021/12/13 07:49:48;;;;;;;45.38;23.17;;;22.70;40.60;;;;;;6148132;28;83244;-69
2021/12/13 07:52:49;;;;;;;44.35;22.48;;;22.70;41.00;;;;;;6149486;28;83294;-69
2021/12/13 07:55:49;;;;;;;43.60;22.95;;;22.70;41.20;;;;;;6161601;28;83552;-70
2021/12/13 07:58:50;;;;;;;38.67;22.02;;;22.70;41.40;;;;;;6167354;27;84112;-67
2021/12/13 08:01:50;;;;;;;37.40;21.05;;;22.70;41.40;;;;;;6161972;28;83197;-68
2021/12/13 08:04:52;;;;;;;34.05;19.30;;;22.70;41.60;;;;;;6166103;28;83145;-67
2021/12/13 08:07:53;;;;;;;32.30;18.35;;;22.70;42.30;;;;;;6158142;28;83432;-68
2021/12/13 08:10:54;;;;;;;30.83;18.50;;;22.60;42.20;;;;;;6157295;28;83259;-68
2021/12/13 08:13:54;;;;;;;31.88;18.05;;;22.60;41.60;;;;;;6157001;28;83435;-72
2021/12/13 08:16:55;;;;;;;34.25;19.52;;;22.50;41.20;;;;;;6158164;28;83699;-69
2021/12/13 08:19:56;;;;;;;32.60;19.88;;;22.40;41.10;;;;;;6155560;28;84251;-68
2021/12/13 08:22:56;;;;;;;32.00;20.55;;;22.40;39.90;;;;;;6152986;28;84381;-67
2021/12/13 08:25:57;;;;;;;33.33;20.10;;;22.40;39.20;;;;;;6156145;28;83347;-65
2021/12/13 08:28:57;;;;;;;36.15;21.10;;;22.40;38.90;;;;;;6156380;28;83267;-66
2021/12/13 08:31:58;;;;;;;36.95;21.58;;;22.40;38.30;;;;;;6158696;28;84102;-69
2021/12/13 08:34:58;;;;;;;34.13;19.65;;;22.40;37.80;;;;;;6156501;28;84243;-69
2021/12/13 08:37:59;;;;;;;32.05;20.10;;;22.50;37.40;;;;;;6156564;28;83194;-69
2021/12/13 08:40:59;;;;;;;36.63;20.75;;;22.60;37.10;;;;;;6157887;28;83046;-70
2021/12/13 08:44:00;;;;;;;32.72;19.17;;;22.70;36.70;;;;;;6154091;28;83438;-70
2021/12/13 08:47:00;;;;;;;31.27;19.13;;;22.70;36.60;;;;;;6189505;27;83240;-75
2021/12/13 08:50:03;;;;;;;30.33;18.42;;;22.80;36.30;;;;;;6156073;28;84133;-69
2021/12/13 08:53:03;;;;;;;37.03;19.90;;;22.90;36.30;;;;;;6155158;28;82873;-67
2021/12/13 08:56:04;;;;;;;29.88;17.23;;;22.90;36.10;;;;;;6151110;28;83573;-68
2021/12/13 08:59:05;;;;;;;36.80;19.60;;;22.90;36.00;;;;;;6154171;28;83295;-68
2021/12/13 09:02:06;;;;;;;30.27;17.92;;;23.00;35.70;;;;;;6154483;28;83209;-69
2021/12/13 09:05:06;;;;;;;30.65;18.27;;;23.10;35.50;;;;;;6154668;28;86145;-68
2021/12/13 09:08:07;;;;;;;33.05;20.15;;;23.10;35.00;;;;;;6156792;28;83059;-71
2021/12/13 09:11:08;;;;;;;42.03;21.52;;;23.20;35.00;;;;;;6155736;28;84205;-72
2021/12/13 09:14:11;;;;;;;31.35;19.33;;;23.20;35.20;;;;;;6156282;28;83089;-70
2021/12/13 09:17:13;;;;;;;36.70;20.40;;;23.20;35.10;;;;;;6153715;28;83417;-73
2021/12/13 09:20:13;;;;;;;33.28;19.40;;;23.20;35.10;;;;;;6187321;28;83678;-69
2021/12/13 09:23:14;;;;;;;30.92;18.88;;;23.20;35.00;;;;;;6149763;28;83197;-69
2021/12/13 09:26:14;;;;;;;34.80;18.73;;;23.40;35.30;;;;;;6156472;28;82781;-70
2021/12/13 09:29:15;;;;;;;28.17;17.23;;;23.40;35.10;;;;;;6160972;28;83674;-69
2021/12/13 09:32:15;;;;;;;34.58;17.90;;;23.40;35.30;;;;;;6160874;28;84646;-67
2021/12/13 09:35:16;;;;;;;34.15;18.65;;;23.50;35.00;;;;;;6154842;28;83571;-70
2021/12/13 09:38:16;;;;;;;28.90;18.38;;;23.60;35.60;;;;;;6155654;28;84393;-71
2021/12/13 09:41:17;;;;;;;41.95;21.95;;;23.60;34.60;;;;;;6154932;28;83179;-68
2021/12/13 09:44:18;;;;;;;53.38;24.75;;;23.70;34.60;;;;;;6155309;28;83058;-69
2021/12/13 09:47:18;;;;;;;61.97;24.70;;;23.70;35.10;;;;;;6152032;28;82971;-67
2021/12/13 09:50:19;;;;;;;60.30;25.33;;;23.80;36.00;;;;;;6153328;28;82925;-68
2021/12/13 09:53:19;;;;;;;66.30;25.25;;;23.90;36.00;;;;;;6154759;28;83074;-70
2021/12/13 09:56:20;;;;;;;56.30;24.75;;;24.00;36.40;;;;;;6156121;28;83400;-70
2021/12/13 09:59:20;;;;;;;71.65;28.45;;;24.10;36.30;;;;;;6156090;28;83246;-68
2021/12/13 10:02:21;;;;;;;66.40;25.42;;;24.10;37.40;;;;;;6155829;28;82739;-69
2021/12/13 10:05:21;;;;;;;71.40;26.00;;;24.20;39.10;;;;;;6156035;28;83168;-73
2021/12/13 10:08:22;;;;;;;68.22;23.60;;;24.20;41.50;;;;;;6156168;28;83769;-68
2021/12/13 10:11:23;;;;;;;70.40;22.38;;;24.30;41.80;;;;;;6156163;28;88666;-67
2021/12/13 10:14:23;;;;;;;64.93;22.60;;;24.30;42.60;;;;;;6155462;28;83191;-68
2021/12/13 10:17:24;;;;;;;83.72;28.35;;;24.30;43.60;;;;;;6154284;28;84452;-69
2021/12/13 10:20:24;;;;;;;75.88;24.63;;;24.30;44.10;;;;;;6155641;28;83063;-71
2021/12/13 10:23:25;;;;;;;55.83;17.45;;;24.40;44.40;;;;;;6165518;28;84673;-68
2021/12/13 10:26:25;;;;;;;36.78;15.70;;;24.40;44.70;;;;;;6163371;28;83962;-68
2021/12/13 10:29:28;;;;;;;32.35;13.77;;;24.40;44.40;;;;;;6160712;28;83830;-67
2021/12/13 10:32:28;;;;;;;30.70;12.55;;;24.50;45.70;;;;;;6152640;28;83136;-68
2021/12/13 10:35:29;;;;;;;29.52;11.82;;;24.60;45.30;;;;;;6150552;28;83710;-67
2021/12/13 10:38:29;;;;;;;28.75;10.55;;;24.70;45.20;;;;;;6151752;28;83259;-65
2021/12/13 10:41:30;;;;;;;22.30;9.52;;;24.60;46.10;;;;;;6153038;28;85185;-68
2021/12/13 10:44:30;;;;;;;16.77;7.07;;;24.70;46.00;;;;;;6154688;28;82920;-66
2021/12/13 10:47:31;;;;;;;13.60;8.13;;;24.80;46.50;;;;;;6157446;28;81200;-66
2021/12/13 10:50:32;;;;;;;16.85;8.25;;;24.80;48.00;;;;;;6156878;28;81010;-68
2021/12/13 10:53:32;;;;;;;16.15;7.80;;;25.00;47.50;;;;;;6156938;28;80754;-68
2021/12/13 10:56:33;;;;;;;12.43;6.93;;;25.20;48.50;;;;;;6157349;28;80469;-68
2021/12/13 10:59:33;;;;;;;12.77;7.07;;;25.30;48.90;;;;;;6152418;28;82196;-70
2021/12/13 11:02:34;;;;;;;11.25;7.07;;;25.50;49.10;;;;;;6158115;28;81564;-68
2021/12/13 11:05:34;;;;;;;9.50;6.45;;;25.50;47.90;;;;;;6157781;28;80563;-68
2021/12/13 11:08:41;;;;;;;18.05;11.32;;;25.60;48.40;;;;;;6160174;28;80420;-66
2021/12/13 11:11:42;;;;;;;16.83;9.13;;;25.40;41.10;;;;;;6157633;28;82890;-70
2021/12/13 11:14:42;;;;;;;14.15;7.80;;;25.30;40.40;;;;;;6159433;28;82691;-72
2021/12/13 11:17:43;;;;;;;11.48;6.95;;;25.30;40.50;;;;;;6157745;28;81895;-67
2021/12/13 11:20:43;;;;;;;11.52;6.82;;;25.30;40.40;;;;;;6156380;28;81043;-67
2021/12/13 11:23:44;;;;;;;9.57;6.40;;;25.30;40.00;;;;;;6161262;28;80063;-68
2021/12/13 11:26:44;;;;;;;12.82;6.50;;;25.30;39.80;;;;;;6162316;28;80156;-68
2021/12/13 11:29:45;;;;;;;9.95;6.30;;;25.30;39.40;;;;;;6164875;28;80791;-68
2021/12/13 11:32:45;;;;;;;9.18;5.93;;;25.30;39.10;;;;;;6168456;28;80407;-68
2021/12/13 11:35:46;;;;;;;11.35;6.28;;;25.30;38.80;;;;;;6161678;28;83611;-68
2021/12/13 11:38:47;;;;;;;7.47;5.22;;;25.40;38.70;;;;;;6168686;28;80654;-72
2021/12/13 11:41:49;;;;;;;9.68;5.80;;;25.40;38.40;;;;;;6163081;28;80090;-71
2021/12/13 11:44:50;;;;;;;7.97;5.53;;;25.40;38.30;;;;;;6159661;28;80391;-70
2021/12/13 11:47:50;;;;;;;8.98;5.85;;;25.30;38.20;;;;;;6161221;28;80897;-68
2021/12/13 11:50:51;;;;;;;9.25;5.97;;;25.40;38.40;;;;;;6155351;28;81725;-68
2021/12/13 11:53:52;;;;;;;9.50;6.25;;;25.40;38.30;;;;;;6162284;28;81274;-67
2021/12/13 11:56:52;;;;;;;11.60;6.43;;;25.50;38.30;;;;;;6157533;28;80528;-70
2021/12/13 11:59:53;;;;;;;11.57;6.30;;;25.40;38.10;;;;;;6162935;28;80325;-68
2021/12/13 12:02:54;;;;;;;9.32;6.20;;;25.40;38.10;;;;;;6160479;28;80907;-68
2021/12/13 12:05:54;;;;;;;14.85;7.90;;;25.40;38.70;;;;;;6156802;28;81044;-67
2021/12/13 12:08:54;;;;;;;13.25;8.18;;;25.40;36.80;;;;;;6157813;28;81750;-66
2021/12/13 12:11:55;;;;;;;19.38;9.98;;;25.40;36.00;;;;;;6160325;28;80977;-67
2021/12/13 12:15:00;;;;;;;15.38;9.55;;;25.40;35.20;;;;;;6149047;28;82954;-66
2021/12/13 12:18:01;;;;;;;18.45;10.30;;;25.30;34.70;;;;;;6161143;28;84385;-66
2021/12/13 12:21:01;;;;;;;21.10;11.35;;;25.30;34.40;;;;;;6150844;28;83672;-67
2021/12/13 12:24:02;;;;;;;19.52;11.65;;;25.30;34.00;;;;;;6168522;28;84235;-65
2021/12/13 12:27:03;;;;;;;19.15;11.45;;;25.30;33.60;;;;;;6161640;28;83082;-67
2021/12/13 12:30:03;;;;;;;16.65;11.13;;;25.20;32.90;;;;;;6158124;28;84124;-68
2021/12/13 12:33:07;;;;;;;21.80;10.90;;;25.20;32.60;;;;;;6149130;28;83995;-65
2021/12/13 12:36:07;;;;;;;21.77;12.60;;;25.30;32.00;;;;;;6158306;28;83816;-65
2021/12/13 12:39:08;;;;;;;20.48;13.05;;;25.20;31.40;;;;;;6156511;28;83097;-65
2021/12/13 12:42:08;;;;;;;20.77;12.20;;;25.20;31.30;;;;;;6155343;28;83368;-66
2021/12/13 12:45:09;;;;;;;21.13;11.43;;;25.20;31.10;;;;;;6156459;28;83652;-66
2021/12/13 12:48:09;;;;;;;17.63;10.98;;;25.10;31.10;;;;;;6156469;28;84146;-65
2021/12/13 12:51:10;;;;;;;21.17;11.70;;;25.10;30.80;;;;;;6156405;28;83665;-66
2021/12/13 12:54:10;;;;;;;19.25;12.52;;;25.10;30.70;;;;;;6147511;28;83245;-66
2021/12/13 12:57:11;;;;;;;23.58;12.60;;;25.00;30.50;;;;;;6154549;28;83536;-68
2021/12/13 13:00:11;;;;;;;21.92;12.48;;;25.00;30.30;;;;;;6149848;28;83307;-66
2021/12/13 13:03:12;;;;;;;19.13;11.38;;;25.00;30.10;;;;;;6141846;28;83366;-67
2021/12/13 13:06:12;;;;;;;14.43;9.55;;;25.00;30.20;;;;;;6148334;28;83669;-67
2021/12/13 13:09:13;;;;;;;15.00;9.40;;;25.00;30.70;;;;;;6161736;28;82337;-67
2021/12/13 13:12:13;;;;;;;13.80;8.43;;;25.00;31.20;;;;;;6159733;28;80898;-67
2021/12/13 13:15:14;;;;;;;13.30;8.55;;;24.90;31.20;;;;;;6156173;28;80882;-67
2021/12/13 13:18:15;;;;;;;12.65;8.13;;;25.00;31.50;;;;;;6155916;28;80294;-67
2021/12/13 13:21:17;;;;;;;13.60;7.72;;;24.90;31.70;;;;;;6156738;28;81131;-66
2021/12/13 13:24:19;;;;;;;11.60;7.20;;;24.90;32.00;;;;;;6146404;28;80589;-66
2021/12/13 13:27:19;;;;;;;11.75;7.63;;;24.90;32.00;;;;;;6166237;28;80384;-66
2021/12/13 13:30:20;;;;;;;8.68;5.75;;;24.90;32.20;;;;;;6158142;28;80117;-66
2021/12/13 13:33:20;;;;;;;11.15;6.55;;;24.90;32.30;;;;;;6161040;28;81003;-66
2021/12/13 13:36:21;;;;;;;10.10;6.47;;;24.80;32.50;;;;;;6159947;28;80518;-66
2021/12/13 13:39:21;;;;;;;8.75;5.78;;;24.80;32.70;;;;;;6158816;28;80450;-68
2021/12/13 13:42:22;;;;;;;10.60;6.35;;;24.80;32.70;;;;;;6157619;28;81439;-66
2021/12/13 13:45:22;;;;;;;9.63;6.28;;;24.80;32.50;;;;;;6159470;28;80838;-67
2021/12/13 13:48:23;;;;;;;10.70;6.55;;;24.70;32.70;;;;;;6157909;28;80540;-68
2021/12/13 13:51:23;;;;;;;9.88;6.05;;;24.70;32.70;;;;;;6169521;28;83052;-67
2021/12/13 13:54:24;;;;;;;8.55;5.40;;;24.70;32.80;;;;;;6159072;28;80694;-67
2021/12/13 13:57:25;;;;;;;8.93;6.20;;;24.70;32.80;;;;;;6160744;28;81658;-67
2021/12/13 14:00:25;;;;;;;12.80;7.13;;;24.60;32.90;;;;;;6161371;28;80916;-68
2021/12/13 14:03:26;;;;;;;10.80;7.00;;;24.50;32.90;;;;;;6158367;28;80676;-68
2021/12/13 14:06:26;;;;;;;12.13;7.38;;;24.40;33.10;;;;;;6158978;28;80708;-67
2021/12/13 14:09:27;;;;;;;11.57;6.88;;;24.40;33.50;;;;;;6154277;28;82397;-68
2021/12/13 14:12:27;;;;;;;10.45;7.25;;;24.30;34.60;;;;;;6157647;28;80666;-67
2021/12/13 14:15:28;;;;;;;11.70;6.68;;;24.30;35.40;;;;;;6160731;28;80800;-70
2021/12/13 14:18:30;;;;;;;33.20;20.40;;;24.30;36.20;;;;;;6160209;28;80634;-65
2021/12/13 14:21:31;;;;;;;22.00;11.15;;;24.10;32.60;;;;;;6155904;28;82915;-65
2021/12/13 14:24:32;;;;;;;19.10;9.07;;;24.00;35.70;;;;;;6154872;28;84032;-65
2021/12/13 14:27:32;;;;;;;20.15;9.60;;;24.00;36.40;;;;;;6156450;28;85756;-66
2021/12/13 14:30:33;;;;;;;13.45;8.20;;;24.00;37.30;;;;;;6159527;28;80840;-66
2021/12/13 14:33:33;;;;;;;13.25;8.10;;;23.90;38.20;;;;;;6159883;28;81523;-67
2021/12/13 14:36:34;;;;;;;12.05;8.02;;;23.90;39.10;;;;;;6159391;28;81118;-63
2021/12/13 14:39:34;;;;;;;11.80;7.45;;;23.80;39.60;;;;;;6157759;28;80768;-65
2021/12/13 14:42:35;;;;;;;11.32;7.38;;;23.80;40.70;;;;;;6145632;28;80590;-66
2021/12/13 14:45:35;;;;;;;13.02;7.60;;;23.80;40.80;;;;;;6156673;28;80358;-64
2021/12/13 14:48:36;;;;;;;14.43;7.95;;;23.70;41.10;;;;;;6158166;28;83244;-64
2021/12/13 14:51:36;;;;;;;13.20;7.20;;;23.70;41.50;;;;;;6159725;28;80910;-65
2021/12/13 14:54:37;;;;;;;11.65;7.82;;;23.60;41.70;;;;;;6158953;28;82969;-64
2021/12/13 14:57:38;;;;;;;19.00;6.93;;;23.60;41.90;;;;;;6156915;28;80951;-66
2021/12/13 15:00:38;;;;;;;12.15;6.70;;;23.60;42.60;;;;;;6157539;28;80462;-65
2021/12/13 15:03:39;;;;;;;10.05;6.05;;;23.60;43.50;;;;;;6159125;28;80746;-65
2021/12/13 15:06:39;;;;;;;14.27;6.53;;;23.60;44.60;;;;;;6156737;28;80813;-65
2021/12/13 15:09:40;;;;;;;13.43;7.90;;;23.60;44.20;;;;;;6155116;28;81036;-63
2021/12/13 15:12:43;;;;;;;18.17;8.73;;;23.70;44.00;;;;;;6148125;28;80273;-65
2021/12/13 15:15:49;;;;;;;15.60;9.85;;;23.70;44.10;;;;;;6157059;28;80896;-65
2021/12/13 15:18:49;;;;;;;;;;;23.80;44.00;;;;;;6158232;28;81337;-66
2021/12/13 15:21:50;;;;;;;18.60;10.48;;;23.80;43.60;;;;;;6163381;28;80294;-65
2021/12/13 15:24:50;;;;;;;18.10;9.85;;;23.80;43.60;;;;;;6157962;28;83563;-65
2021/12/13 15:27:51;;;;;;;17.48;9.77;;;23.80;43.70;;;;;;6158911;28;84228;-64
2021/12/13 15:30:51;;;;;;;17.70;9.48;;;23.80;44.10;;;;;;6156545;28;80893;-64
2021/12/13 15:33:52;;;;;;;14.23;9.23;;;23.90;44.20;;;;;;6168462;28;80494;-64